Adrian, Michigan
Current Conditions -  °F | °C
As of 11:53 AM on Friday 24 Oct 2014 (Local Time) from KADG Reporting Station
Overcast Overcast  
Wind Chill: 54°   Ceiling: 4000
Heat Index: 54°   Visibility: 9mi
Dew Point: 44°   Wind: 7mph
Humidity: 69%   Direction: 190°S
Pressure: 30.07"   Gusts: NA
Location:  41.9°N, 84.04°W
Report Text: KADG 241553Z AUTO 19006KT 9SM OVC040 12/07 A3007 RMK AO2 SLP188 T01220067
Loading
Personal Weather Stations






























Interactive Weather Map New forecast layout! Learn more

10-Day Weather Forecast

Advertisements
Track Severe Weather on mobile